Time;durP1;ratioP1;P1;durP2;ratioP2;P2;SDS_P1;SDS_P2;PMS_P1;PMS_P2;Temp;Humidity;BMP_temperature;BMP_pressure;BME280_temperature;BME280_humidity;BME280_pressure;Samples;Min_cycle;Max_cycle;Signal;HPM_P1;HPM_P2
2022/10/06 00:00:48;;;;;;;5.57;1.27;;;13.60;99.90;;;;;;5072882;28;20458;-68
2022/10/06 00:03:14;;;;;;;5.38;0.77;;;13.50;99.90;;;;;;5088695;28;20088;-68
2022/10/06 00:05:40;;;;;;;3.05;0.70;;;13.60;99.90;;;;;;5090140;28;20044;-68
2022/10/06 00:08:05;;;;;;;4.05;1.20;;;13.60;99.90;;;;;;5087892;28;20492;-68
2022/10/06 00:10:31;;;;;;;7.60;1.35;;;13.50;99.90;;;;;;5090474;28;20040;-68
2022/10/06 00:12:57;;;;;;;2.65;0.93;;;13.50;99.90;;;;;;5088255;28;20046;-72
2022/10/06 00:15:26;;;;;;;2.97;0.68;;;13.40;99.90;;;;;;5090507;28;20127;-68
2022/10/06 00:17:52;;;;;;;5.47;0.93;;;13.40;99.90;;;;;;5073549;28;20040;-69
2022/10/06 00:20:18;;;;;;;4.85;1.40;;;13.40;99.90;;;;;;5073815;28;20044;-68
2022/10/06 00:22:45;;;;;;;;;;;13.40;99.90;;;;;;5092743;28;20101;-68
2022/10/06 00:25:13;;;;;;;3.03;0.95;;;13.40;99.90;;;;;;5093935;28;19924;-68
2022/10/06 00:27:46;;;;;;;7.78;0.80;;;13.40;99.90;;;;;;5092956;28;20073;-68
2022/10/06 00:30:14;;;;;;;3.22;0.90;;;13.50;99.90;;;;;;5092886;28;20056;-68
2022/10/06 00:32:40;;;;;;;6.20;1.38;;;13.50;99.90;;;;;;5093084;28;20051;-68
2022/10/06 00:35:06;;;;;;;6.03;1.40;;;13.40;99.90;;;;;;5092415;28;20040;-69
2022/10/06 00:37:36;;;;;;;3.83;1.15;;;13.40;99.90;;;;;;5092534;28;20493;-68
2022/10/06 00:40:08;;;;;;;3.25;0.73;;;13.30;99.90;;;;;;5115105;27;20490;-68
2022/10/06 00:42:52;;;;;;;6.15;1.25;;;13.30;99.90;;;;;;5073627;28;20067;-68
2022/10/06 00:45:36;;;;;;;1.70;0.90;;;13.30;99.90;;;;;;5073318;28;20075;-68
2022/10/06 00:48:10;;;;;;;1.75;1.25;;;13.20;99.90;;;;;;5071088;28;20131;-69
2022/10/06 00:50:36;;;;;;;1.70;0.80;;;13.30;99.90;;;;;;5076576;28;20063;-68
2022/10/06 00:53:03;;;;;;;2.13;1.00;;;13.20;99.90;;;;;;5089109;28;20516;-73
2022/10/06 00:55:29;;;;;;;3.65;0.80;;;13.20;99.90;;;;;;5072896;28;20497;-68
2022/10/06 00:57:55;;;;;;;3.70;1.23;;;13.20;99.90;;;;;;5072885;28;20052;-72
2022/10/06 01:00:21;;;;;;;2.10;0.88;;;13.20;99.90;;;;;;5087079;28;20040;-67
2022/10/06 01:02:57;;;;;;;3.75;1.48;;;13.20;99.90;;;;;;5083737;28;20147;-70
2022/10/06 01:05:30;;;;;;;4.78;0.98;;;13.20;99.90;;;;;;5072564;28;20512;-70
2022/10/06 01:07:57;;;;;;;4.45;0.90;;;13.10;99.90;;;;;;5077465;28;20101;-71
2022/10/06 01:10:23;;;;;;;6.03;1.10;;;13.10;99.90;;;;;;5091916;28;20048;-68
2022/10/06 01:12:48;;;;;;;;;;;13.10;99.90;;;;;;5092642;28;20090;-69
2022/10/06 01:15:15;;;;;;;19.77;1.85;;;13.10;99.90;;;;;;5092985;28;20335;-68
2022/10/06 01:17:50;;;;;;;3.53;0.98;;;13.00;99.90;;;;;;5087465;28;20525;-69
2022/10/06 01:20:18;;;;;;;10.32;2.03;;;12.90;99.90;;;;;;5072538;28;20044;-72
2022/10/06 01:22:49;;;;;;;4.50;1.38;;;12.90;99.90;;;;;;5090163;28;20044;-69
2022/10/06 01:25:17;;;;;;;2.42;0.88;;;12.80;99.90;;;;;;5092549;28;20048;-70
2022/10/06 01:27:49;;;;;;;7.50;1.77;;;12.90;99.90;;;;;;5091394;28;20075;-68
2022/10/06 01:30:18;;;;;;;3.00;0.88;;;12.80;99.90;;;;;;5092579;28;20052;-69
2022/10/06 01:32:44;;;;;;;8.18;1.27;;;12.70;99.90;;;;;;5091828;28;20047;-68
2022/10/06 01:35:10;;;;;;;9.38;1.67;;;12.60;99.90;;;;;;5092513;28;20070;-67
2022/10/06 01:37:36;;;;;;;3.00;1.20;;;12.60;99.90;;;;;;5091889;28;20481;-68
2022/10/06 01:40:02;;;;;;;4.82;1.20;;;12.60;99.90;;;;;;5092719;28;20086;-72
2022/10/06 01:42:30;;;;;;;6.68;1.63;;;12.60;99.90;;;;;;5092419;28;20044;-68
2022/10/06 01:44:56;;;;;;;3.20;1.35;;;12.60;99.90;;;;;;5092306;28;20048;-70
2022/10/06 01:47:22;;;;;;;1.88;0.90;;;12.60;99.90;;;;;;5071670;28;20048;-69
2022/10/06 01:49:47;;;;;;;3.55;1.08;;;12.50;99.90;;;;;;5088499;28;20048;-68
2022/10/06 01:52:13;;;;;;;8.38;1.08;;;12.60;99.90;;;;;;5087452;28;20079;-70
2022/10/06 01:54:39;;;;;;;4.00;1.48;;;12.50;99.90;;;;;;5091654;28;20148;-67
2022/10/06 01:57:07;;;;;;;7.40;1.92;;;12.50;99.90;;;;;;5092121;28;20067;-72
2022/10/06 01:59:33;;;;;;;2.25;1.17;;;12.50;99.90;;;;;;5090535;28;20385;-68
2022/10/06 02:01:59;;;;;;;;;;;12.50;99.90;;;;;;5089671;28;20083;-68
2022/10/06 02:04:24;;;;;;;5.85;1.00;;;12.50;99.90;;;;;;5090319;28;20170;-69
2022/10/06 02:06:50;;;;;;;6.32;1.40;;;12.50;99.90;;;;;;5091989;28;20054;-68
2022/10/06 02:09:16;;;;;;;3.72;1.20;;;12.40;99.90;;;;;;5091469;28;20477;-69
2022/10/06 02:11:42;;;;;;;5.07;1.42;;;12.40;99.90;;;;;;5074203;28;20397;-68
2022/10/06 02:14:07;;;;;;;3.75;1.25;;;12.30;99.90;;;;;;5071755;28;20040;-73
2022/10/06 02:16:34;;;;;;;8.98;1.80;;;12.30;99.90;;;;;;5071147;28;20452;-68
2022/10/06 02:19:00;;;;;;;7.75;1.73;;;12.20;99.90;;;;;;5071830;28;20049;-68
2022/10/06 02:21:26;;;;;;;9.20;1.20;;;12.20;99.90;;;;;;5070858;28;20047;-68
2022/10/06 02:23:52;;;;;;;7.72;1.95;;;12.10;99.90;;;;;;5084406;28;20079;-68
2022/10/06 02:26:18;;;;;;;9.15;1.40;;;12.10;99.90;;;;;;5077217;28;20349;-69
2022/10/06 02:28:45;;;;;;;4.45;1.20;;;12.00;99.90;;;;;;5071791;28;20055;-68
2022/10/06 02:31:12;;;;;;;3.85;1.30;;;12.00;99.90;;;;;;5070146;28;20159;-68
2022/10/06 02:33:39;;;;;;;4.03;1.33;;;11.90;99.90;;;;;;5071535;28;20066;-68
2022/10/06 02:36:06;;;;;;;11.23;1.30;;;11.90;99.90;;;;;;5086718;28;20398;-71
2022/10/06 02:38:32;;;;;;;6.88;1.25;;;11.90;99.90;;;;;;5069349;28;20126;-69
2022/10/06 02:40:59;;;;;;;6.65;1.80;;;12.00;99.90;;;;;;5071233;28;20084;-68
2022/10/06 02:43:30;;;;;;;9.50;1.45;;;12.00;99.90;;;;;;5070914;28;20106;-69
2022/10/06 02:46:14;;;;;;;23.25;1.83;;;12.00;99.90;;;;;;5077240;28;20048;-71
2022/10/06 02:48:40;;;;;;;5.90;1.60;;;12.00;99.90;;;;;;5071184;28;20055;-68
2022/10/06 02:51:14;;;;;;;7.72;1.55;;;12.00;99.90;;;;;;5070949;28;20040;-68
2022/10/06 02:53:42;;;;;;;9.05;1.60;;;12.00;99.90;;;;;;5071057;28;20041;-69
2022/10/06 02:56:16;;;;;;;6.93;1.55;;;12.10;99.90;;;;;;5070453;28;20068;-72
2022/10/06 02:58:42;;;;;;;13.32;1.48;;;12.10;99.90;;;;;;5071293;28;20135;-68
2022/10/06 03:01:13;;;;;;;9.52;1.75;;;12.10;99.90;;;;;;5070000;28;20124;-72
2022/10/06 03:03:40;;;;;;;8.43;2.00;;;12.10;99.90;;;;;;5069765;28;20132;-69
2022/10/06 03:06:21;;;;;;;;;;;12.10;99.90;;;;;;5070023;28;20405;-68
2022/10/06 03:08:52;;;;;;;6.53;1.35;;;12.10;99.90;;;;;;5070535;28;19974;-69
2022/10/06 03:11:19;;;;;;;5.60;1.25;;;12.00;99.90;;;;;;5070196;28;20057;-67
2022/10/06 03:13:46;;;;;;;5.68;1.48;;;12.00;99.90;;;;;;5073357;28;20054;-70
2022/10/06 03:16:18;;;;;;;7.32;1.50;;;11.90;99.90;;;;;;5083148;28;20098;-72
2022/10/06 03:18:50;;;;;;;9.77;1.88;;;12.00;99.90;;;;;;5091035;28;20602;-68
2022/10/06 03:21:17;;;;;;;11.75;1.50;;;11.90;99.90;;;;;;5089123;28;20044;-68
2022/10/06 03:23:47;;;;;;;9.57;1.60;;;12.00;99.90;;;;;;5090653;28;20051;-69
2022/10/06 03:26:16;;;;;;;6.97;1.60;;;11.90;99.90;;;;;;5075542;28;20489;-71
2022/10/06 03:28:42;;;;;;;8.90;1.65;;;11.90;99.90;;;;;;5078311;28;20392;-68
2022/10/06 03:31:08;;;;;;;2.97;1.20;;;11.90;99.90;;;;;;5089948;28;20132;-68
2022/10/06 03:33:34;;;;;;;7.68;1.00;;;11.80;99.90;;;;;;5090114;28;20047;-67
2022/10/06 03:36:03;;;;;;;6.50;1.42;;;11.80;99.90;;;;;;5123167;27;20048;-69
2022/10/06 03:38:31;;;;;;;7.70;1.10;;;11.80;99.90;;;;;;5089795;28;20036;-68
2022/10/06 03:41:11;;;;;;;8.00;1.80;;;11.80;99.90;;;;;;5089398;28;20052;-67
2022/10/06 03:43:38;;;;;;;7.38;1.48;;;11.70;99.90;;;;;;5090602;28;20078;-69
2022/10/06 03:46:05;;;;;;;11.10;1.98;;;11.70;99.90;;;;;;5088753;28;20047;-67
2022/10/06 03:48:33;;;;;;;8.55;2.03;;;11.60;99.90;;;;;;5090002;28;20135;-68
2022/10/06 03:51:05;;;;;;;12.13;1.75;;;11.60;99.90;;;;;;5089175;28;20044;-67
2022/10/06 03:53:32;;;;;;;6.72;1.67;;;11.60;99.90;;;;;;5089566;28;20044;-69
2022/10/06 03:56:12;;;;;;;5.00;1.20;;;11.50;99.90;;;;;;5069836;28;20555;-70
2022/10/06 03:58:41;;;;;;;10.15;1.50;;;11.50;99.90;;;;;;5069875;28;20052;-67
2022/10/06 04:01:14;;;;;;;5.13;1.20;;;11.50;99.90;;;;;;5069970;28;20502;-67
2022/10/06 04:03:40;;;;;;;8.57;1.73;;;11.50;99.90;;;;;;5069973;28;20124;-68
2022/10/06 04:06:10;;;;;;;10.13;1.48;;;11.40;99.90;;;;;;5076415;28;20052;-67
2022/10/06 04:08:37;;;;;;;5.43;1.15;;;11.40;99.90;;;;;;5088394;28;20564;-68
2022/10/06 04:11:06;;;;;;;8.18;1.42;;;11.40;99.90;;;;;;5090103;28;20534;-67
2022/10/06 04:13:32;;;;;;;3.22;1.05;;;11.30;99.90;;;;;;5089905;28;20453;-67
2022/10/06 04:15:57;;;;;;;;;;;11.30;99.90;;;;;;5090499;28;20101;-70
2022/10/06 04:18:23;;;;;;;8.05;2.08;;;11.30;99.90;;;;;;5088971;28;19927;-67
2022/10/06 04:20:49;;;;;;;6.57;1.60;;;11.20;99.90;;;;;;5090007;28;20549;-67
2022/10/06 04:23:15;;;;;;;10.60;1.48;;;11.20;99.90;;;;;;5088970;28;20461;-67
2022/10/06 04:25:41;;;;;;;7.25;1.02;;;11.20;99.90;;;;;;5083602;28;20068;-67
2022/10/06 04:28:07;;;;;;;4.57;1.15;;;11.10;99.90;;;;;;5066563;28;20056;-68
2022/10/06 04:30:32;;;;;;;4.40;1.55;;;11.10;99.90;;;;;;5067944;28;20106;-67
2022/10/06 04:32:58;;;;;;;3.75;0.90;;;11.10;99.90;;;;;;5067649;28;20037;-68
2022/10/06 04:35:24;;;;;;;6.97;1.48;;;11.00;99.90;;;;;;5083091;28;20048;-68
2022/10/06 04:37:50;;;;;;;3.78;1.23;;;10.90;99.90;;;;;;5087319;28;20044;-68
2022/10/06 04:40:16;;;;;;;7.25;1.73;;;10.90;99.90;;;;;;5084466;28;20044;-67
2022/10/06 04:42:42;;;;;;;8.68;1.67;;;10.90;99.90;;;;;;5069201;28;20056;-67
2022/10/06 04:45:08;;;;;;;5.72;2.35;;;10.80;99.90;;;;;;5070010;28;20087;-69
2022/10/06 04:47:33;;;;;;;4.35;1.63;;;10.80;99.90;;;;;;5070684;28;20090;-68
2022/10/06 04:49:59;;;;;;;4.43;1.65;;;10.80;99.90;;;;;;5089711;28;20044;-69
2022/10/06 04:52:25;;;;;;;5.47;1.17;;;10.70;99.90;;;;;;5087870;28;20039;-69
2022/10/06 04:54:51;;;;;;;12.15;2.38;;;10.70;99.90;;;;;;5070753;28;20496;-67
2022/10/06 04:57:16;;;;;;;6.28;1.00;;;10.60;99.90;;;;;;5089812;28;20130;-67
2022/10/06 05:02:27;;;;;;;8.38;1.52;;;10.60;99.90;;;;;;5069089;28;20064;-68
2022/10/06 05:04:53;;;;;;;11.02;1.33;;;10.50;99.90;;;;;;5073043;28;20390;-68
2022/10/06 05:07:19;;;;;;;8.80;1.80;;;10.50;99.90;;;;;;5089997;28;20040;-67
2022/10/06 05:09:45;;;;;;;10.95;1.67;;;10.50;99.90;;;;;;5092671;28;20043;-67
2022/10/06 05:12:11;;;;;;;8.95;1.50;;;10.50;99.90;;;;;;5093481;28;20086;-67
2022/10/06 05:14:36;;;;;;;7.47;1.67;;;10.50;99.90;;;;;;5092854;28;20091;-68
2022/10/06 05:17:02;;;;;;;8.52;1.42;;;10.40;99.90;;;;;;5092315;28;20051;-68
2022/10/06 05:19:28;;;;;;;12.50;1.73;;;10.40;99.90;;;;;;5092570;28;20056;-70
2022/10/06 05:21:53;;;;;;;5.22;1.80;;;10.40;99.90;;;;;;5079061;28;20386;-68
2022/10/06 05:24:19;;;;;;;5.95;1.42;;;10.40;99.90;;;;;;5090425;28;20067;-68
2022/10/06 05:26:45;;;;;;;6.05;1.73;;;10.30;99.90;;;;;;5092674;28;20074;-70
2022/10/06 05:29:10;;;;;;;7.32;1.58;;;10.30;99.90;;;;;;5093289;28;20074;-69
2022/10/06 05:31:41;;;;;;;9.43;1.30;;;10.30;99.90;;;;;;5090116;28;20473;-70
2022/10/06 05:34:08;;;;;;;12.43;1.88;;;10.30;99.90;;;;;;5092927;28;20562;-67
2022/10/06 05:36:33;;;;;;;;;;;10.30;99.90;;;;;;5092975;28;20136;-70
2022/10/06 05:38:59;;;;;;;7.15;1.50;;;10.20;99.90;;;;;;5092038;28;20010;-68
2022/10/06 05:41:29;;;;;;;11.52;1.50;;;10.20;99.90;;;;;;5091554;28;20490;-72
2022/10/06 05:43:57;;;;;;;7.72;1.55;;;10.20;99.90;;;;;;5078528;28;20052;-68
2022/10/06 05:46:27;;;;;;;8.38;1.50;;;10.20;99.90;;;;;;5078197;28;20048;-68
2022/10/06 05:48:55;;;;;;;9.93;2.35;;;10.20;99.90;;;;;;5092214;28;20128;-70
2022/10/06 05:51:24;;;;;;;9.38;2.10;;;10.20;99.90;;;;;;5092840;28;20083;-68
2022/10/06 05:53:49;;;;;;;6.00;1.45;;;10.20;99.90;;;;;;5091374;28;20115;-68
2022/10/06 05:56:20;;;;;;;5.22;1.70;;;10.20;99.90;;;;;;5091880;28;20162;-71
2022/10/06 05:58:48;;;;;;;9.02;1.98;;;10.20;99.90;;;;;;5092089;28;20209;-68
2022/10/06 06:01:18;;;;;;;11.38;1.52;;;10.20;99.90;;;;;;5090361;28;20757;-68
2022/10/06 06:03:51;;;;;;;7.72;1.55;;;10.20;99.90;;;;;;5089158;28;20075;-70
2022/10/06 06:06:22;;;;;;;7.63;1.40;;;10.20;99.90;;;;;;5084524;28;20048;-68
2022/10/06 06:08:54;;;;;;;9.60;1.63;;;10.20;99.90;;;;;;5089591;28;20123;-67
2022/10/06 06:11:26;;;;;;;4.45;1.55;;;10.30;99.90;;;;;;5091287;28;20095;-67
2022/10/06 06:14:00;;;;;;;7.93;1.35;;;10.30;99.90;;;;;;5091414;28;20382;-69
2022/10/06 06:16:27;;;;;;;11.85;1.65;;;10.30;99.90;;;;;;5091195;28;20044;-69
2022/10/06 06:18:53;;;;;;;10.82;2.22;;;10.40;99.90;;;;;;5091224;28;20051;-68
2022/10/06 06:21:20;;;;;;;5.03;1.77;;;10.40;99.90;;;;;;5090926;28;20050;-69
2022/10/06 06:23:47;;;;;;;5.88;1.17;;;10.50;99.90;;;;;;5090305;28;20516;-69
2022/10/06 06:26:22;;;;;;;6.90;1.35;;;10.50;99.90;;;;;;5079157;28;20043;-68
2022/10/06 06:28:49;;;;;;;7.75;1.50;;;10.50;99.90;;;;;;5091427;28;20051;-68
2022/10/06 06:31:21;;;;;;;7.85;1.55;;;10.60;99.90;;;;;;5080070;28;20063;-69
2022/10/06 06:33:49;;;;;;;3.47;1.73;;;10.70;99.90;;;;;;5091014;28;20048;-68
2022/10/06 06:36:16;;;;;;;9.23;1.42;;;10.60;99.90;;;;;;5073746;28;20054;-67
2022/10/06 06:38:45;;;;;;;4.35;1.55;;;10.70;99.90;;;;;;5090326;28;20058;-68
2022/10/06 06:41:19;;;;;;;6.13;1.60;;;10.70;99.90;;;;;;5091433;28;20519;-68
2022/10/06 06:43:46;;;;;;;16.13;1.98;;;10.70;99.90;;;;;;5091161;28;20473;-69
2022/10/06 06:46:16;;;;;;;7.65;2.15;;;10.70;99.90;;;;;;5072854;28;20060;-67
2022/10/06 06:48:42;;;;;;;10.35;1.63;;;10.80;99.90;;;;;;5078072;28;20048;-69
2022/10/06 06:51:10;;;;;;;13.35;1.40;;;10.80;99.90;;;;;;5078010;28;20035;-68
2022/10/06 06:53:37;;;;;;;6.22;1.70;;;10.90;99.90;;;;;;5090314;28;20055;-71
2022/10/06 06:56:03;;;;;;;7.88;1.60;;;10.90;99.90;;;;;;5091168;28;20056;-68
2022/10/06 06:58:29;;;;;;;15.65;2.92;;;10.90;99.90;;;;;;5090662;28;20058;-69
2022/10/06 07:01:04;;;;;;;12.85;2.05;;;11.00;99.90;;;;;;5089849;28;20052;-70
2022/10/06 07:03:30;;;;;;;6.97;1.63;;;11.00;99.90;;;;;;5090155;28;20054;-68
2022/10/06 07:06:10;;;;;;;5.93;1.85;;;11.00;99.90;;;;;;5089571;28;20043;-68
2022/10/06 07:08:41;;;;;;;5.07;1.40;;;11.10;99.90;;;;;;5085420;28;20394;-71
2022/10/06 07:11:36;;;;;;;6.43;1.35;;;11.10;99.90;;;;;;5072282;28;20048;-67
2022/10/06 07:14:08;;;;;;;5.95;2.08;;;11.20;99.90;;;;;;5066320;28;20076;-69
2022/10/06 07:25:10;;;;;;;10.73;1.63;;;11.50;99.90;;;;;;5075895;28;20061;-69
2022/10/06 07:27:44;;;;;;;4.70;1.20;;;11.70;99.90;;;;;;5087894;28;20073;-70
2022/10/06 07:30:16;;;;;;;6.75;1.20;;;11.70;99.90;;;;;;5085682;28;20044;-67
2022/10/06 07:32:43;;;;;;;11.27;2.03;;;11.80;99.90;;;;;;5081890;28;20078;-72
2022/10/06 07:35:09;;;;;;;5.55;1.35;;;11.90;99.90;;;;;;5088181;28;20066;-68
2022/10/06 07:37:34;;;;;;;7.85;1.75;;;11.90;99.90;;;;;;5086768;28;20052;-68
2022/10/06 07:40:00;;;;;;;10.30;1.77;;;12.00;99.90;;;;;;5084943;28;20040;-68
2022/10/06 07:42:26;;;;;;;;;;;12.00;99.90;;;;;;5088668;28;20093;-67
2022/10/06 07:47:39;;;;;;;11.60;2.42;;;12.10;99.90;;;;;;5081527;28;20054;-71
2022/10/06 07:50:06;;;;;;;7.35;1.27;;;12.10;99.90;;;;;;5074260;28;20481;-67
2022/10/06 07:52:35;;;;;;;6.95;1.40;;;12.10;99.90;;;;;;5082454;28;20040;-67
2022/10/06 07:55:00;;;;;;;13.18;1.45;;;12.20;99.90;;;;;;5087063;28;20042;-68
2022/10/06 07:57:33;;;;;;;8.70;1.85;;;12.20;99.90;;;;;;5087211;28;20052;-68
2022/10/06 08:00:00;;;;;;;7.15;1.40;;;12.20;99.90;;;;;;5084522;28;20055;-68
2022/10/06 08:02:25;;;;;;;7.22;1.52;;;12.30;99.90;;;;;;5079101;28;20048;-71
2022/10/06 08:04:51;;;;;;;10.18;2.38;;;12.40;99.90;;;;;;5071535;28;20116;-67
2022/10/06 08:07:17;;;;;;;15.82;1.58;;;12.40;99.90;;;;;;5089685;28;20054;-68
2022/10/06 08:09:43;;;;;;;5.93;1.23;;;12.50;99.90;;;;;;5088038;28;20541;-71
2022/10/06 08:14:53;;;;;;;4.28;1.65;;;12.70;99.90;;;;;;5089275;28;20548;-68
2022/10/06 08:17:18;;;;;;;9.00;1.67;;;12.70;99.90;;;;;;5083371;28;20130;-68
2022/10/06 08:19:44;;;;;;;6.78;1.40;;;12.80;99.90;;;;;;5088791;28;20127;-71
2022/10/06 08:22:11;;;;;;;5.35;1.60;;;12.80;99.90;;;;;;5089450;28;20071;-69
2022/10/06 08:24:36;;;;;;;14.48;2.20;;;12.90;99.90;;;;;;5089617;28;20088;-70
2022/10/06 08:27:02;;;;;;;6.28;1.35;;;13.00;99.90;;;;;;5089095;28;20875;-68
2022/10/06 08:29:28;;;;;;;12.18;1.58;;;13.00;99.90;;;;;;5090003;28;20099;-69
2022/10/06 08:31:54;;;;;;;9.18;1.92;;;13.10;99.90;;;;;;5087039;28;20439;-69
2022/10/06 08:34:20;;;;;;;4.22;1.48;;;13.20;99.90;;;;;;5089895;28;20519;-72
2022/10/06 08:36:46;;;;;;;7.70;1.55;;;13.20;99.90;;;;;;5088000;28;20048;-74
2022/10/06 08:39:12;;;;;;;4.38;1.13;;;13.30;99.90;;;;;;5085523;28;20051;-74
2022/10/06 08:41:43;;;;;;;8.25;1.92;;;13.30;99.90;;;;;;5073504;28;20047;-70
2022/10/06 08:44:14;;;;;;;11.00;1.58;;;13.30;99.90;;;;;;5075484;28;20111;-68
2022/10/06 08:46:50;;;;;;;8.55;1.38;;;13.30;99.90;;;;;;5092338;28;20048;-70
2022/10/06 08:49:21;;;;;;;7.90;1.30;;;13.40;99.90;;;;;;5093077;28;20048;-68
2022/10/06 08:52:01;;;;;;;7.40;1.50;;;13.40;99.90;;;;;;5092893;28;20488;-76
2022/10/06 08:54:42;;;;;;;6.68;1.40;;;13.50;99.90;;;;;;5092582;28;20140;-70
2022/10/06 08:57:22;;;;;;;8.50;1.80;;;13.50;99.90;;;;;;5092282;28;20044;-68
2022/10/06 08:59:51;;;;;;;8.25;1.60;;;13.60;99.90;;;;;;5091985;28;20086;-76
2022/10/06 09:02:29;;;;;;;8.13;1.70;;;13.60;99.90;;;;;;5090802;28;20047;-69
2022/10/06 09:04:57;;;;;;;10.07;1.75;;;13.60;99.90;;;;;;5088918;28;20088;-69
2022/10/06 09:07:47;;;;;;;9.10;1.15;;;13.70;99.90;;;;;;5092291;28;20101;-76
2022/10/06 09:10:54;;;;;;;10.20;2.22;;;13.70;99.90;;;;;;5081418;28;20076;-68
2022/10/06 09:13:27;;;;;;;11.70;1.90;;;13.80;99.90;;;;;;5080441;28;20079;-67
2022/10/06 09:15:58;;;;;;;7.78;1.67;;;13.80;99.90;;;;;;5087537;28;20036;-72
2022/10/06 09:18:30;;;;;;;8.77;1.70;;;13.90;99.90;;;;;;5078560;28;20056;-68
2022/10/06 09:21:00;;;;;;;6.35;1.75;;;13.90;99.90;;;;;;5078336;28;20048;-67
2022/10/06 09:23:49;;;;;;;8.02;1.88;;;14.00;99.90;;;;;;5082293;28;20066;-67
2022/10/06 09:26:31;;;;;;;9.48;2.92;;;14.10;99.90;;;;;;5072608;28;20082;-66
2022/10/06 09:28:58;;;;;;;11.35;2.03;;;14.10;99.90;;;;;;5072403;28;20048;-65
2022/10/06 09:31:30;;;;;;;8.18;1.58;;;14.20;99.90;;;;;;5072221;28;20052;-64
2022/10/06 09:34:03;;;;;;;5.28;1.92;;;14.30;99.90;;;;;;5071803;28;20048;-69
2022/10/06 09:36:30;;;;;;;8.13;1.65;;;14.30;99.90;;;;;;5073034;28;20037;-68
2022/10/06 09:38:58;;;;;;;10.80;2.97;;;14.40;99.90;;;;;;5090397;28;20051;-68
2022/10/06 09:41:30;;;;;;;8.02;1.50;;;14.50;99.90;;;;;;5074489;28;20047;-66
2022/10/06 09:44:04;;;;;;;10.68;1.75;;;14.60;99.90;;;;;;5081002;28;20049;-66
2022/10/06 09:46:38;;;;;;;8.65;1.73;;;14.70;99.90;;;;;;5081589;28;20516;-66
2022/10/06 09:49:20;;;;;;;10.13;1.30;;;14.80;99.90;;;;;;5081579;28;20055;-66
2022/10/06 09:52:17;;;;;;;16.13;1.73;;;14.90;99.90;;;;;;5082427;28;20496;-72
2022/10/06 09:54:43;;;;;;;10.57;1.98;;;14.90;99.90;;;;;;5089404;28;20059;-65
2022/10/06 09:57:22;;;;;;;11.75;1.77;;;15.00;99.90;;;;;;5085009;28;20100;-72
2022/10/06 09:59:48;;;;;;;6.05;1.58;;;15.10;99.90;;;;;;5078849;28;20393;-65
2022/10/06 10:02:30;;;;;;;5.45;1.33;;;15.10;99.90;;;;;;5076149;28;20040;-65
2022/10/06 10:04:57;;;;;;;11.75;1.52;;;15.00;99.90;;;;;;5071649;28;20058;-70
2022/10/06 10:07:28;;;;;;;9.85;1.50;;;14.90;99.90;;;;;;5104438;28;20047;-64
2022/10/06 10:10:16;;;;;;;12.73;2.00;;;14.90;99.90;;;;;;5071310;28;20618;-70
2022/10/06 10:12:54;;;;;;;8.75;1.35;;;14.90;99.90;;;;;;5072099;28;20480;-65
2022/10/06 10:15:19;;;;;;;4.65;1.27;;;15.10;99.90;;;;;;5071809;28;20506;-65
2022/10/06 10:17:53;;;;;;;7.13;1.42;;;15.10;99.90;;;;;;5070780;28;20102;-65
2022/10/06 10:20:33;;;;;;;7.30;2.13;;;15.10;99.90;;;;;;5072282;28;20119;-67
2022/10/06 10:23:22;;;;;;;2.28;1.02;;;15.00;99.90;;;;;;5090624;28;20056;-66
2022/10/06 10:26:02;;;;;;;7.25;1.70;;;15.00;99.90;;;;;;5074417;28;20052;-65
2022/10/06 10:28:57;;;;;;;6.30;1.23;;;15.10;99.90;;;;;;5072900;28;20045;-64
2022/10/06 10:32:10;;;;;;;8.43;2.17;;;15.30;99.90;;;;;;5082936;28;20051;-65
2022/10/06 10:35:05;;;;;;;7.25;1.50;;;15.50;99.90;;;;;;5063290;28;20056;-69
2022/10/06 10:37:46;;;;;;;11.35;2.03;;;15.70;99.90;;;;;;5082818;28;20519;-64
2022/10/06 10:40:41;;;;;;;5.13;1.05;;;15.80;99.90;;;;;;5075847;28;20056;-69
2022/10/06 10:43:26;;;;;;;4.32;1.23;;;16.10;99.90;;;;;;5054182;28;20048;-69
2022/10/06 10:45:56;;;;;;;6.05;1.40;;;16.30;99.90;;;;;;5073338;28;20489;-72
2022/10/06 10:48:40;;;;;;;7.13;1.77;;;16.30;99.90;;;;;;5080406;28;20041;-69
2022/10/06 10:51:30;;;;;;;6.45;2.08;;;16.10;99.90;;;;;;5076839;28;20045;-68
2022/10/06 10:54:23;;;;;;;5.88;1.30;;;15.90;99.90;;;;;;5099796;27;20044;-72
2022/10/06 10:56:51;;;;;;;7.15;1.77;;;15.70;99.90;;;;;;5086619;28;20472;-69
2022/10/06 10:59:38;;;;;;;9.48;1.85;;;15.50;99.90;;;;;;5086293;28;20043;-68
2022/10/06 11:02:08;;;;;;;7.80;1.45;;;15.40;99.90;;;;;;5084770;28;20079;-73
2022/10/06 11:04:39;;;;;;;7.80;2.03;;;15.60;99.90;;;;;;5086491;28;20047;-69
2022/10/06 11:07:18;;;;;;;3.42;1.17;;;15.90;99.90;;;;;;5063399;28;21997;-73
2022/10/06 11:10:09;;;;;;;6.90;1.25;;;16.30;99.90;;;;;;5044441;28;20059;-73
2022/10/06 11:13:00;;;;;;;11.73;2.60;;;16.60;99.90;;;;;;5070115;28;20150;-71
2022/10/06 11:15:54;;;;;;;5.13;1.30;;;16.70;99.90;;;;;;5085192;28;20122;-69
2022/10/06 11:18:47;;;;;;;9.80;1.80;;;16.70;99.90;;;;;;5087005;28;20115;-67
2022/10/06 11:21:22;;;;;;;6.57;1.02;;;16.70;99.90;;;;;;5087719;28;20048;-71
2022/10/06 11:24:03;;;;;;;5.30;0.98;;;16.70;99.90;;;;;;5087082;28;20048;-72
2022/10/06 11:26:44;;;;;;;6.35;1.23;;;17.20;99.90;;;;;;5087674;28;20040;-68
2022/10/06 11:29:18;;;;;;;3.97;1.30;;;17.40;99.90;;;;;;5086647;28;20099;-68
2022/10/06 11:31:53;;;;;;;4.43;0.90;;;17.60;97.80;;;;;;5082376;28;20434;-68
2022/10/06 11:34:19;;;;;;;5.70;1.33;;;17.80;98.50;;;;;;5079854;28;20044;-68
2022/10/06 11:36:56;;;;;;;;;;;18.10;99.90;;;;;;5085896;28;20101;-67
2022/10/06 11:39:31;;;;;;;18.48;2.30;;;18.60;91.70;;;;;;5085863;28;19920;-66
2022/10/06 11:42:09;;;;;;;5.85;1.30;;;19.20;97.10;;;;;;5089951;28;20054;-66
2022/10/06 11:44:44;;;;;;;7.85;1.50;;;19.40;95.40;;;;;;5089606;28;20048;-68
2022/10/06 11:47:17;;;;;;;5.60;1.35;;;19.50;95.70;;;;;;5088478;28;20192;-67
2022/10/06 11:49:46;;;;;;;7.18;1.20;;;19.40;96.80;;;;;;5090302;28;20084;-68
2022/10/06 11:52:14;;;;;;;8.55;1.25;;;19.60;96.60;;;;;;5089202;28;20052;-68
2022/10/06 11:54:51;;;;;;;4.65;1.00;;;20.00;95.90;;;;;;5083199;28;20105;-68
2022/10/06 11:57:23;;;;;;;6.22;1.13;;;20.20;86.10;;;;;;5087886;28;20052;-70
2022/10/06 11:59:51;;;;;;;13.38;1.23;;;20.40;91.60;;;;;;5091124;28;20076;-67
2022/10/06 12:02:29;;;;;;;6.88;1.00;;;20.50;92.00;;;;;;5086531;28;20055;-67
2022/10/06 12:05:13;;;;;;;6.70;1.33;;;20.40;77.30;;;;;;5088228;28;20125;-67
2022/10/06 12:07:54;;;;;;;3.75;1.13;;;20.20;76.90;;;;;;5088963;28;20127;-70
2022/10/06 12:10:28;;;;;;;3.30;1.15;;;20.10;74.90;;;;;;5089439;28;20086;-66
2022/10/06 12:13:08;;;;;;;4.00;1.00;;;20.10;81.80;;;;;;5093230;28;20498;-66
2022/10/06 12:15:48;;;;;;;9.63;1.50;;;19.90;81.30;;;;;;5094406;28;20199;-67
2022/10/06 12:18:22;;;;;;;2.75;0.70;;;19.80;79.80;;;;;;5079518;28;20473;-66
2022/10/06 12:20:53;;;;;;;9.65;1.52;;;19.90;81.80;;;;;;5090601;28;20452;-69
2022/10/06 12:23:45;;;;;;;3.42;1.10;;;20.00;75.20;;;;;;5072287;28;20489;-66
2022/10/06 12:26:32;;;;;;;3.55;0.82;;;20.00;73.10;;;;;;5086865;28;20049;-66
2022/10/06 12:29:38;;;;;;;4.78;0.98;;;20.10;75.30;;;;;;5086385;28;20040;-67
2022/10/06 12:32:03;;;;;;;6.00;1.10;;;20.10;75.30;;;;;;5093075;28;20117;-66
2022/10/06 12:34:38;;;;;;;7.10;1.15;;;20.20;79.50;;;;;;5092693;28;20462;-66
2022/10/06 12:37:28;;;;;;;5.40;1.20;;;20.30;76.30;;;;;;5092306;28;20044;-70
2022/10/06 12:40:31;;;;;;;4.75;1.27;;;20.40;73.90;;;;;;5093759;28;20048;-68
2022/10/06 12:43:18;;;;;;;10.63;1.20;;;20.60;74.40;;;;;;5093444;28;20393;-68
2022/10/06 12:46:14;;;;;;;8.13;1.40;;;20.60;71.70;;;;;;5072982;28;20059;-66
2022/10/06 12:48:50;;;;;;;6.97;1.00;;;20.40;74.10;;;;;;5072529;28;20505;-69
2022/10/06 12:51:33;;;;;;;3.28;1.02;;;20.20;77.70;;;;;;5072152;28;20097;-67
2022/10/06 12:54:01;;;;;;;4.10;1.17;;;20.20;77.60;;;;;;5073160;28;20045;-66
2022/10/06 12:56:31;;;;;;;6.50;0.90;;;20.50;77.60;;;;;;5091623;28;20150;-67
2022/10/06 12:58:57;;;;;;;3.72;0.63;;;20.60;74.00;;;;;;5077575;28;20051;-66
2022/10/06 13:01:25;;;;;;;4.10;0.90;;;20.60;73.50;;;;;;5072042;28;20053;-67
2022/10/06 13:03:52;;;;;;;3.97;1.17;;;20.60;72.50;;;;;;5072105;28;20127;-66
2022/10/06 13:06:23;;;;;;;5.93;1.30;;;20.40;71.90;;;;;;5080804;28;20464;-67
2022/10/06 13:09:14;;;;;;;6.57;1.27;;;20.40;71.10;;;;;;5073517;28;20048;-67
2022/10/06 13:11:39;;;;;;;8.05;1.00;;;20.40;66.30;;;;;;5090566;28;20052;-66
2022/10/06 13:14:09;;;;;;;3.88;1.23;;;20.30;71.00;;;;;;5082370;28;20076;-67
2022/10/06 13:16:40;;;;;;;4.75;0.90;;;20.30;70.30;;;;;;5081293;28;20044;-66
2022/10/06 13:19:21;;;;;;;3.42;0.88;;;20.40;68.30;;;;;;5092802;28;20055;-70
2022/10/06 13:21:46;;;;;;;4.18;0.85;;;20.70;68.40;;;;;;5092895;28;20497;-70
2022/10/06 13:24:18;;;;;;;4.93;0.90;;;20.90;69.40;;;;;;5091716;28;20067;-71
2022/10/06 13:26:44;;;;;;;3.72;0.77;;;21.00;68.00;;;;;;5093432;28;20139;-66